DEUTP EDLW-EDDG
Flight info
| Callsign | DEUTP |
|---|---|
| Flight time | 0h 26m |
| Altitude | 5000 |
| Route | HMM1U HMM HMM1B |
| Aircraft | S22T/L-SDGRY/S |
Departure
| Time | 2026-05-04 13:35 |
|---|---|
| Airport | Dortmund Airport (EDLW) |
Arrival
| Time | 2026-05-04 14:02 |
|---|---|
| Airport | Münster Osnabrück Airport (EDDG) |
| Time | Latitude | Longitude | Altitude | Speed | Heading |
|---|---|---|---|---|---|
| 2026-05-04 13:05 | 51.51219 | 7.60460 | 457 ft | 0 kts | 197° |
| 2026-05-04 13:25 | 51.51222 | 7.60424 | 455 ft | 12 kts | 300° |
| 2026-05-04 13:25 | 51.51178 | 7.60267 | 454 ft | 18 kts | 227° |
| 2026-05-04 13:25 | 51.51200 | 7.60180 | 448 ft | 18 kts | 52° |
| 2026-05-04 13:26 | 51.51282 | 7.60409 | 441 ft | 28 kts | 58° |
| 2026-05-04 13:26 | 51.51353 | 7.60609 | 437 ft | 11 kts | 61° |
| 2026-05-04 13:26 | 51.51370 | 7.60658 | 438 ft | 0 kts | 63° |
| 2026-05-04 13:28 | 51.51373 | 7.60667 | 431 ft | 7 kts | 62° |
| 2026-05-04 13:28 | 51.51442 | 7.60863 | 431 ft | 30 kts | 59° |
| 2026-05-04 13:29 | 51.51547 | 7.61055 | 426 ft | 19 kts | 341° |
| 2026-05-04 13:29 | 51.51632 | 7.61198 | 419 ft | 23 kts | 59° |
| 2026-05-04 13:29 | 51.51703 | 7.61399 | 420 ft | 21 kts | 61° |
| 2026-05-04 13:29 | 51.51780 | 7.61616 | 415 ft | 25 kts | 61° |
| 2026-05-04 13:30 | 51.51865 | 7.61858 | 412 ft | 24 kts | 61° |
| 2026-05-04 13:30 | 51.51952 | 7.62103 | 409 ft | 24 kts | 57° |
| 2026-05-04 13:30 | 51.52041 | 7.62357 | 405 ft | 26 kts | 62° |
| 2026-05-04 13:30 | 51.52122 | 7.62369 | 405 ft | 0 kts | 333° |
| 2026-05-04 13:33 | 51.52150 | 7.62346 | 406 ft | 16 kts | 330° |
| 2026-05-04 13:34 | 51.52191 | 7.62244 | 406 ft | 0 kts | 239° |
| 2026-05-04 13:34 | 51.52149 | 7.62124 | 406 ft | 46 kts | 240° |
| 2026-05-04 13:35 | 51.51903 | 7.61430 | 502 ft | 86 kts | 240° |
| 2026-05-04 13:35 | 51.51253 | 7.59544 | 1267 ft | 95 kts | 237° |
| 2026-05-04 13:35 | 51.50923 | 7.58637 | 1750 ft | 96 kts | 240° |
| 2026-05-04 13:36 | 51.50600 | 7.57717 | 2241 ft | 95 kts | 237° |
| 2026-05-04 13:36 | 51.50275 | 7.56786 | 2708 ft | 97 kts | 238° |
| 2026-05-04 13:36 | 51.49945 | 7.55838 | 3179 ft | 97 kts | 238° |
| 2026-05-04 13:36 | 51.49603 | 7.54880 | 3545 ft | 105 kts | 237° |
| 2026-05-04 13:37 | 51.49211 | 7.53772 | 3785 ft | 119 kts | 239° |
| 2026-05-04 13:37 | 51.48803 | 7.52628 | 4159 ft | 118 kts | 237° |
| 2026-05-04 13:37 | 51.48398 | 7.51486 | 4478 ft | 119 kts | 238° |
| 2026-05-04 13:37 | 51.48122 | 7.50719 | 4662 ft | 120 kts | 237° |
| 2026-05-04 13:38 | 51.47585 | 7.49125 | 4998 ft | 129 kts | 249° |
| 2026-05-04 13:38 | 51.47695 | 7.47594 | 5004 ft | 152 kts | 289° |
| 2026-05-04 13:38 | 51.48134 | 7.46018 | 5014 ft | 161 kts | 290° |
| 2026-05-04 13:38 | 51.48584 | 7.44328 | 5014 ft | 167 kts | 290° |
| 2026-05-04 13:39 | 51.49280 | 7.42806 | 5012 ft | 174 kts | 316° |
| 2026-05-04 13:39 | 51.50324 | 7.41779 | 5014 ft | 178 kts | 329° |
| 2026-05-04 13:39 | 51.51422 | 7.40844 | 5013 ft | 179 kts | 328° |
| 2026-05-04 13:39 | 51.52522 | 7.39892 | 5015 ft | 180 kts | 328° |
| 2026-05-04 13:40 | 51.53626 | 7.38932 | 5015 ft | 180 kts | 328° |
| 2026-05-04 13:40 | 51.54814 | 7.38274 | 5002 ft | 184 kts | 351° |
| 2026-05-04 13:40 | 51.56093 | 7.38457 | 4997 ft | 186 kts | 15° |
| 2026-05-04 13:40 | 51.57220 | 7.39442 | 4996 ft | 185 kts | 40° |
| 2026-05-04 13:41 | 51.58186 | 7.40818 | 5000 ft | 185 kts | 41° |
| 2026-05-04 13:41 | 51.59164 | 7.42174 | 5003 ft | 186 kts | 41° |
| 2026-05-04 13:41 | 51.60135 | 7.43524 | 5003 ft | 187 kts | 41° |
| 2026-05-04 13:42 | 51.62094 | 7.46259 | 5005 ft | 187 kts | 41° |
| 2026-05-04 13:42 | 51.63074 | 7.47638 | 5003 ft | 187 kts | 41° |
| 2026-05-04 13:42 | 51.64053 | 7.49011 | 5001 ft | 186 kts | 41° |
| 2026-05-04 13:42 | 51.65029 | 7.50377 | 5000 ft | 186 kts | 41° |
| 2026-05-04 13:43 | 51.66001 | 7.51738 | 5001 ft | 185 kts | 41° |
| 2026-05-04 13:43 | 51.66974 | 7.53104 | 4998 ft | 185 kts | 41° |
| 2026-05-04 13:43 | 51.67937 | 7.54448 | 5002 ft | 186 kts | 41° |
| 2026-05-04 13:43 | 51.68911 | 7.55823 | 4999 ft | 186 kts | 41° |
| 2026-05-04 13:44 | 51.69883 | 7.57197 | 4999 ft | 185 kts | 41° |
| 2026-05-04 13:44 | 51.70861 | 7.58556 | 5001 ft | 185 kts | 38° |
| 2026-05-04 13:44 | 51.71992 | 7.59559 | 4999 ft | 186 kts | 24° |
| 2026-05-04 13:44 | 51.73151 | 7.60490 | 4999 ft | 187 kts | 26° |
| 2026-05-04 13:45 | 51.74308 | 7.61447 | 5002 ft | 187 kts | 26° |
| 2026-05-04 13:45 | 51.75453 | 7.62392 | 5004 ft | 187 kts | 26° |
| 2026-05-04 13:45 | 51.76628 | 7.63357 | 5006 ft | 187 kts | 26° |
| 2026-05-04 13:45 | 51.77772 | 7.64297 | 5004 ft | 187 kts | 26° |
| 2026-05-04 13:46 | 51.78932 | 7.65250 | 5005 ft | 187 kts | 26° |
| 2026-05-04 13:46 | 51.80094 | 7.66210 | 5010 ft | 187 kts | 26° |
| 2026-05-04 13:46 | 51.81256 | 7.67165 | 5008 ft | 187 kts | 26° |
| 2026-05-04 13:46 | 51.82414 | 7.68117 | 5009 ft | 186 kts | 26° |
| 2026-05-04 13:47 | 51.83570 | 7.69070 | 5011 ft | 187 kts | 26° |
| 2026-05-04 13:47 | 51.84724 | 7.70021 | 5012 ft | 186 kts | 26° |
| 2026-05-04 13:47 | 51.85856 | 7.71031 | 5005 ft | 186 kts | 36° |
| 2026-05-04 13:47 | 51.86824 | 7.72420 | 5000 ft | 186 kts | 42° |
| 2026-05-04 13:48 | 51.87795 | 7.73799 | 5004 ft | 186 kts | 41° |
| 2026-05-04 13:48 | 51.88770 | 7.75170 | 5003 ft | 185 kts | 41° |
| 2026-05-04 13:48 | 51.89734 | 7.76521 | 5005 ft | 185 kts | 41° |
| 2026-05-04 13:48 | 51.90704 | 7.77898 | 5003 ft | 185 kts | 41° |
| 2026-05-04 13:49 | 51.91674 | 7.79271 | 5001 ft | 185 kts | 41° |
| 2026-05-04 13:49 | 51.92644 | 7.80643 | 5002 ft | 185 kts | 41° |
| 2026-05-04 13:49 | 51.93616 | 7.82017 | 5001 ft | 185 kts | 41° |
| 2026-05-04 13:49 | 51.94586 | 7.83394 | 4997 ft | 186 kts | 41° |
| 2026-05-04 13:50 | 51.95557 | 7.84768 | 4997 ft | 185 kts | 41° |
| 2026-05-04 13:50 | 51.96522 | 7.86142 | 5001 ft | 185 kts | 41° |
| 2026-05-04 13:50 | 51.97492 | 7.87516 | 5001 ft | 184 kts | 40° |
| 2026-05-04 13:50 | 51.98446 | 7.88874 | 5003 ft | 185 kts | 41° |
| 2026-05-04 13:51 | 51.99421 | 7.90257 | 5005 ft | 187 kts | 41° |
| 2026-05-04 13:51 | 52.00396 | 7.91645 | 5003 ft | 186 kts | 41° |
| 2026-05-04 13:51 | 52.01310 | 7.93116 | 4996 ft | 185 kts | 56° |
| 2026-05-04 13:51 | 52.01609 | 7.95084 | 4995 ft | 182 kts | 98° |
| 2026-05-04 13:52 | 52.01457 | 7.98983 | 5001 ft | 184 kts | 58° |
| 2026-05-04 13:52 | 52.02460 | 8.00199 | 5001 ft | 182 kts | 14° |
| 2026-05-04 13:52 | 52.03711 | 8.00476 | 5005 ft | 182 kts | 6° |
| 2026-05-04 13:53 | 52.04913 | 8.01114 | 4996 ft | 184 kts | 26° |
| 2026-05-04 13:53 | 52.05990 | 8.02203 | 4999 ft | 185 kts | 32° |
| 2026-05-04 13:53 | 52.07079 | 8.03351 | 5002 ft | 184 kts | 31° |
| 2026-05-04 13:54 | 52.09255 | 8.05560 | 5008 ft | 186 kts | 31° |
| 2026-05-04 13:54 | 52.10351 | 8.06674 | 5009 ft | 186 kts | 31° |
| 2026-05-04 13:54 | 52.12710 | 8.08197 | 4898 ft | 188 kts | 359° |
| 2026-05-04 13:55 | 52.14020 | 8.07774 | 4570 ft | 197 kts | 338° |
| 2026-05-04 13:55 | 52.16693 | 8.06269 | 3862 ft | 206 kts | 339° |
| 2026-05-04 13:55 | 52.17992 | 8.05341 | 3502 ft | 203 kts | 323° |
| 2026-05-04 13:56 | 52.18977 | 8.03789 | 3160 ft | 197 kts | 304° |
| 2026-05-04 13:56 | 52.19587 | 8.01844 | 3003 ft | 186 kts | 288° |
| 2026-05-04 13:56 | 52.19640 | 7.97977 | 2985 ft | 162 kts | 255° |
| 2026-05-04 13:57 | 52.19289 | 7.96300 | 2992 ft | 151 kts | 251° |
| 2026-05-04 13:57 | 52.18956 | 7.94706 | 2993 ft | 145 kts | 251° |
| 2026-05-04 13:58 | 52.18042 | 7.90189 | 2778 ft | 142 kts | 251° |
| 2026-05-04 13:58 | 52.17367 | 7.87009 | 2379 ft | 153 kts | 251° |
| 2026-05-04 13:58 | 52.17025 | 7.85372 | 2170 ft | 156 kts | 252° |
| 2026-05-04 13:59 | 52.16675 | 7.83698 | 1962 ft | 156 kts | 251° |
| 2026-05-04 13:59 | 52.16319 | 7.82011 | 1749 ft | 158 kts | 251° |
| 2026-05-04 13:59 | 52.15722 | 7.79193 | 1397 ft | 158 kts | 251° |
| 2026-05-04 14:00 | 52.15381 | 7.77557 | 1180 ft | 145 kts | 252° |
| 2026-05-04 14:00 | 52.14774 | 7.74699 | 817 ft | 124 kts | 251° |
| 2026-05-04 14:00 | 52.14414 | 7.72996 | 618 ft | 117 kts | 250° |
| 2026-05-04 14:01 | 52.14236 | 7.72156 | 511 ft | 115 kts | 251° |
| 2026-05-04 14:01 | 52.13986 | 7.70954 | 364 ft | 106 kts | 250° |
| 2026-05-04 14:01 | 52.13592 | 7.69090 | 165 ft | 70 kts | 251° |
| 2026-05-04 14:02 | 52.13454 | 7.68434 | 164 ft | 49 kts | 251° |
| 2026-05-04 14:02 | 52.13375 | 7.68062 | 163 ft | 20 kts | 255° |
| 2026-05-04 14:02 | 52.13326 | 7.67832 | 161 ft | 23 kts | 249° |
| 2026-05-04 14:02 | 52.13274 | 7.67587 | 161 ft | 23 kts | 252° |
| 2026-05-04 14:03 | 52.13222 | 7.67337 | 160 ft | 23 kts | 250° |
| 2026-05-04 14:03 | 52.13171 | 7.67097 | 161 ft | 18 kts | 248° |
| 2026-05-04 14:03 | 52.13074 | 7.67072 | 162 ft | 19 kts | 145° |
| 2026-05-04 14:03 | 52.13038 | 7.67298 | 162 ft | 26 kts | 69° |
| 2026-05-04 14:04 | 52.13175 | 7.67945 | 163 ft | 24 kts | 71° |
| 2026-05-04 14:04 | 52.13234 | 7.68219 | 163 ft | 27 kts | 69° |
| 2026-05-04 14:04 | 52.13178 | 7.68361 | 163 ft | 21 kts | 160° |
| 2026-05-04 14:05 | 52.13105 | 7.68228 | 163 ft | 0 kts | 272° |